M I D A S
Marine Information and Data Acquisition System
Tripno 490 of the Zeeleeuw from 2003-04-11 08:23:34 to 2003-04-11 16:45:56
Back to CruiseResearch ActivitiesStationsMapUnderway DataData graphs

EquipmentUnitsComment
TimeDGPSUTC
LatitudeDGPSDM.mWGS84
LongitudeDGPSDM.mWGS84
HeadingGyrodeg 
SOGDGPSknotsSpeed over ground
COGDGPSdegCourse over ground
DepthEcho soundermeters200 kHz
Missing or incorrect values are displayed as -999
Navigation data collected by the RV Zeeleeuw from 2003-04-11 08:23:34 to 2003-04-11 16:45:56
                                                                                    Next 1000 lines
Time Latitude Longitude Heading SOG COG Depth
2003-04-11 08:23:40 51°38.92 3°18.86 55.9 14.9 49 26.9
2003-04-11 08:23:46 51°38.93 3°18.89 55.4 14.9 49 27
2003-04-11 08:23:50 51°38.94 3°18.91 54.9 14.9 48 26.7
2003-04-11 08:23:56 51°38.96 3°18.94 55.2 14.8 49 27.2
2003-04-11 08:24:00 51°38.97 3°18.96 55.5 14.8 49 27
2003-04-11 08:24:06 51°38.99 3°18.99 55.6 14.9 49 27.2
2003-04-11 08:24:10 51°39 3°19.01 55.2 14.9 49 27.1
2003-04-11 08:24:16 51°39.01 3°19.04 55.6 14.9 49 27.2
2003-04-11 08:24:20 51°39.02 3°19.06 55.5 14.9 49 27
2003-04-11 08:24:26 51°39.04 3°19.09 55.9 14.9 49 27.3
2003-04-11 08:24:30 51°39.05 3°19.11 55.7 14.9 49 27.4
2003-04-11 08:24:36 51°39.07 3°19.14 55.6 14.9 49 27.1
2003-04-11 08:24:40 51°39.08 3°19.16 55.9 14.9 50 27.4
2003-04-11 08:24:46 51°39.1 3°19.19 55.5 14.8 49 27.4
2003-04-11 08:24:50 51°39.1 3°19.21 55.6 14.8 50 27.1
2003-04-11 08:24:56 51°39.12 3°19.24 57.4 14.9 50 27.6
2003-04-11 08:25:00 51°39.13 3°19.26 57.1 14.9 51 27.4
2003-04-11 08:25:06 51°39.15 3°19.29 58 14.9 52 27.4
2003-04-11 08:25:10 51°39.16 3°19.32 58 14.8 51 27.6
2003-04-11 08:25:16 51°39.17 3°19.35 58.7 14.8 53 27.5
2003-04-11 08:25:20 51°39.18 3°19.37 59 14.8 52 27.2
2003-04-11 08:25:26 51°39.2 3°19.4 59.3 14.8 53 27.4
2003-04-11 08:25:30 51°39.21 3°19.42 59.2 14.8 53 27.1
2003-04-11 08:25:36 51°39.22 3°19.45 59.5 14.8 53 27.1
2003-04-11 08:25:40 51°39.23 3°19.47 59.1 14.8 53 27.5
2003-04-11 08:25:46 51°39.25 3°19.5 58.9 14.8 52 27
2003-04-11 08:25:50 51°39.26 3°19.53 58.7 14.8 52 27.3
2003-04-11 08:25:56 51°39.27 3°19.56 58.4 14.8 52 27.3
2003-04-11 08:26:00 51°39.28 3°19.58 57.7 14.8 51 27.1
2003-04-11 08:26:06 51°39.3 3°19.61 57.3 14.8 51 27.1
2003-04-11 08:26:10 51°39.31 3°19.63 57.5 14.7 51 27.4
2003-04-11 08:26:16 51°39.32 3°19.66 57.3 14.8 51 27.3
2003-04-11 08:26:20 51°39.33 3°19.68 57.8 14.8 51 26.9
2003-04-11 08:26:26 51°39.35 3°19.71 57.4 14.8 51 27.2
2003-04-11 08:26:30 51°39.36 3°19.73 57.6 14.7 51 27.2
2003-04-11 08:26:36 51°39.37 3°19.76 57.4 14.8 51 27.4
2003-04-11 08:26:40 51°39.38 3°19.78 57.3 14.8 51 27.5
2003-04-11 08:26:46 51°39.4 3°19.81 57.2 14.8 51 27.8
2003-04-11 08:26:50 51°39.41 3°19.83 57.2 14.8 51 27.5
2003-04-11 08:26:56 51°39.43 3°19.86 57.3 14.8 52 27.9
2003-04-11 08:27:00 51°39.44 3°19.88 57.5 14.8 51 27.6
2003-04-11 08:27:06 51°39.45 3°19.92 57.4 14.7 51 27.6
2003-04-11 08:27:10 51°39.46 3°19.94 57.5 14.7 51 27.5
2003-04-11 08:27:16 51°39.48 3°19.97 57.3 14.8 51 27.4
2003-04-11 08:27:20 51°39.49 3°19.99 57 14.8 51 27.6
2003-04-11 08:27:26 51°39.5 3°20.02 57.3 14.8 51 27.7
2003-04-11 08:27:30 51°39.51 3°20.04 57.6 14.8 51 27.8
2003-04-11 08:27:36 51°39.53 3°20.07 57.4 14.8 52 27.4
2003-04-11 08:27:40 51°39.54 3°20.09 57.9 14.9 51 27.6
2003-04-11 08:27:46 51°39.55 3°20.12 57.6 14.8 51 27.6
2003-04-11 08:27:50 51°39.56 3°20.14 57.4 14.9 51 27.7
2003-04-11 08:27:56 51°39.58 3°20.17 57.5 14.8 51 27.7
2003-04-11 08:28:00 51°39.59 3°20.19 57.9 14.8 52 27.7
2003-04-11 08:28:06 51°39.61 3°20.23 57.7 14.9 51 27.5
2003-04-11 08:28:10 51°39.62 3°20.25 56.9 14.9 51 27.7
2003-04-11 08:28:16 51°39.63 3°20.28 57 14.9 51 27.6
2003-04-11 08:28:20 51°39.64 3°20.3 57.3 14.9 51 27.7
2003-04-11 08:28:26 51°39.66 3°20.33 57.8 14.9 51 27.6
2003-04-11 08:28:30 51°39.67 3°20.35 57.3 15 51 27.6
2003-04-11 08:28:36 51°39.68 3°20.38 57.3 14.9 51 27.9
2003-04-11 08:28:40 51°39.69 3°20.4 57 14.8 51 27.9
2003-04-11 08:28:46 51°39.71 3°20.43 57.4 14.8 51 27.8
2003-04-11 08:28:50 51°39.72 3°20.45 56.9 14.8 51 27.9
2003-04-11 08:28:56 51°39.74 3°20.48 57 14.8 51 27.9
2003-04-11 08:29:00 51°39.75 3°20.5 57.3 14.9 51 28.1
2003-04-11 08:29:06 51°39.76 3°20.53 57.6 14.9 51 28
2003-04-11 08:29:10 51°39.77 3°20.56 57.3 14.9 51 28.1
2003-04-11 08:29:16 51°39.79 3°20.59 57.5 14.9 51 28
2003-04-11 08:29:20 51°39.8 3°20.61 57.2 14.9 51 28
2003-04-11 08:29:26 51°39.81 3°20.64 56.5 14.9 51 28.1
2003-04-11 08:29:30 51°39.82 3°20.66 56.8 14.9 51 28
2003-04-11 08:29:36 51°39.84 3°20.69 57.2 14.8 51 28.2
2003-04-11 08:29:40 51°39.85 3°20.71 57.3 14.8 51 28.2
2003-04-11 08:29:46 51°39.87 3°20.74 57.2 14.8 51 28.3
2003-04-11 08:29:50 51°39.88 3°20.76 57.3 14.8 51 28.4
2003-04-11 08:29:56 51°39.89 3°20.79 57.2 14.8 51 28.2
2003-04-11 08:30:00 51°39.9 3°20.81 57.2 14.8 51 28
2003-04-11 08:30:06 51°39.92 3°20.84 57.2 14.8 51 28
2003-04-11 08:30:10 51°39.93 3°20.86 56.6 14.8 50 28.1
2003-04-11 08:30:16 51°39.94 3°20.89 57 14.8 50 28.5
2003-04-11 08:30:20 51°39.95 3°20.91 57.3 14.8 50 28.5
2003-04-11 08:30:26 51°39.97 3°20.94 57 14.8 51 28.4
2003-04-11 08:30:30 51°39.98 3°20.96 57.3 14.8 51 28.5
2003-04-11 08:30:36 51°40 3°20.99 57.5 14.7 51 28.3
2003-04-11 08:30:40 51°40.01 3°21.01 57.5 14.7 51 28.3
2003-04-11 08:30:46 51°40.02 3°21.05 57.3 14.7 51 28.2
2003-04-11 08:30:50 51°40.03 3°21.07 57.3 14.8 51 28.2
2003-04-11 08:30:56 51°40.05 3°21.1 56.8 14.8 50 28.4
2003-04-11 08:31:00 51°40.06 3°21.12 56.9 14.8 50 28.5
2003-04-11 08:31:06 51°40.07 3°21.15 56.9 14.7 50 28.6
2003-04-11 08:31:10 51°40.08 3°21.17 56.8 14.7 50 28.5
2003-04-11 08:31:16 51°40.1 3°21.2 57.2 14.8 51 28.3
2003-04-11 08:31:20 51°40.11 3°21.22 57.3 14.8 51 28.4
2003-04-11 08:31:26 51°40.13 3°21.25 57.4 14.8 51 28.4
2003-04-11 08:31:30 51°40.14 3°21.27 56.9 14.8 50 28.2
2003-04-11 08:31:36 51°40.15 3°21.3 57.6 14.7 51 28.1
2003-04-11 08:31:40 51°40.16 3°21.32 57.4 14.7 51 27.9
2003-04-11 08:31:46 51°40.18 3°21.35 57.9 14.7 51 28.1
2003-04-11 08:31:50 51°40.19 3°21.37 57.4 14.8 51 28.1
2003-04-11 08:31:56 51°40.2 3°21.4 57.3 14.8 51 28.3
2003-04-11 08:32:00 51°40.21 3°21.42 57.3 14.8 51 28.8
2003-04-11 08:32:06 51°40.23 3°21.45 57 14.7 50 29.3
2003-04-11 08:32:10 51°40.24 3°21.47 57.1 14.7 51 29.6
2003-04-11 08:32:16 51°40.25 3°21.5 57.6 14.7 51 29.6
2003-04-11 08:32:20 51°40.27 3°21.52 57.7 14.6 51 29.6
2003-04-11 08:32:26 51°40.28 3°21.55 57 14.6 50 29.4
2003-04-11 08:32:30 51°40.29 3°21.57 57.2 14.7 51 29.4
2003-04-11 08:32:36 51°40.31 3°21.6 57.3 14.7 51 29.5
2003-04-11 08:32:40 51°40.32 3°21.62 57.2 14.7 51 29.6
2003-04-11 08:32:46 51°40.33 3°21.66 57.7 14.7 51 29.5
2003-04-11 08:32:50 51°40.34 3°21.68 57.3 14.7 51 29.6
2003-04-11 08:32:56 51°40.36 3°21.71 57.3 14.7 51 30
2003-04-11 08:33:00 51°40.37 3°21.73 57.8 14.6 51 29.9
2003-04-11 08:33:06 51°40.38 3°21.76 58 14.6 51 30
2003-04-11 08:33:10 51°40.39 3°21.78 57.3 14.7 51 30
2003-04-11 08:33:16 51°40.41 3°21.81 57.5 14.7 51 30.1
2003-04-11 08:33:20 51°40.42 3°21.83 58.3 14.7 51 30.2
2003-04-11 08:33:26 51°40.43 3°21.86 57.7 14.8 51 30.3
2003-04-11 08:33:30 51°40.44 3°21.88 57.8 14.8 52 30.2
2003-04-11 08:33:36 51°40.46 3°21.91 57.8 14.8 51 30.4
2003-04-11 08:33:40 51°40.47 3°21.93 57.7 14.7 51 30.5
2003-04-11 08:33:46 51°40.49 3°21.96 57.2 14.7 51 30.4
2003-04-11 08:33:50 51°40.5 3°21.98 57.3 14.7 51 30.4
2003-04-11 08:33:56 51°40.51 3°22.01 57.3 14.7 51 30.5
2003-04-11 08:34:00 51°40.52 3°22.03 57.5 14.7 51 30.5
2003-04-11 08:34:06 51°40.54 3°22.06 57.4 14.7 51 30.5
2003-04-11 08:34:10 51°40.55 3°22.08 57.8 14.7 51 30.4
2003-04-11 08:34:16 51°40.56 3°22.12 57.6 14.7 51 30.3
2003-04-11 08:34:20 51°40.57 3°22.14 57.3 14.7 51 30.5
2003-04-11 08:34:26 51°40.59 3°22.17 57.9 14.7 51 30.7
2003-04-11 08:34:30 51°40.6 3°22.19 58 14.7 52 30.7
2003-04-11 08:34:36 51°40.61 3°22.22 57.5 14.7 51 30.6
2003-04-11 08:34:40 51°40.62 3°22.24 57.1 14.7 51 30.8
2003-04-11 08:34:46 51°40.64 3°22.27 57 14.8 51 30.7
2003-04-11 08:34:50 51°40.65 3°22.29 56.4 14.8 50 30.6
2003-04-11 08:34:56 51°40.67 3°22.32 57.4 14.6 52 30.9
2003-04-11 08:35:00 51°40.68 3°22.34 57.3 14.6 51 30.7
2003-04-11 08:35:06 51°40.69 3°22.37 57.2 14.7 51 30.8
2003-04-11 08:35:10 51°40.7 3°22.39 56.6 14.7 50 30.8
2003-04-11 08:35:16 51°40.72 3°22.42 57.3 14.7 51 30.6
2003-04-11 08:35:20 51°40.73 3°22.44 57.2 14.7 51 30.5
2003-04-11 08:35:26 51°40.74 3°22.47 57.6 14.7 52 30.5
2003-04-11 08:35:30 51°40.75 3°22.49 57.8 14.7 52 30.5
2003-04-11 08:35:36 51°40.77 3°22.53 57.5 14.8 52 30.1
2003-04-11 08:35:40 51°40.78 3°22.55 57.6 14.8 52 30.1
2003-04-11 08:35:46 51°40.79 3°22.58 57.3 14.8 52 30.4
2003-04-11 08:35:50 51°40.8 3°22.6 57.3 14.8 51 30.5
2003-04-11 08:35:56 51°40.82 3°22.63 57 14.9 51 30.6
2003-04-11 08:36:00 51°40.83 3°22.65 57 14.9 51 30.7
2003-04-11 08:36:06 51°40.84 3°22.68 57.1 14.9 51 31
2003-04-11 08:36:10 51°40.86 3°22.7 57.4 14.8 51 31.3
2003-04-11 08:36:16 51°40.87 3°22.73 57 14.8 51 31.4
2003-04-11 08:36:20 51°40.88 3°22.75 57.2 14.8 51 31.4
2003-04-11 08:36:26 51°40.9 3°22.78 57.3 14.9 51 31.4
2003-04-11 08:36:30 51°40.91 3°22.8 56.8 14.9 51 31.2
2003-04-11 08:36:36 51°40.92 3°22.83 57.1 14.9 51 31.2
2003-04-11 08:36:40 51°40.93 3°22.86 56.8 14.9 51 31.1
2003-04-11 08:36:46 51°40.95 3°22.89 57.1 14.9 51 30.5
2003-04-11 08:36:50 51°40.96 3°22.91 57.4 14.9 51 30.3
2003-04-11 08:36:56 51°40.97 3°22.94 57.4 14.8 51 30.3
2003-04-11 08:37:00 51°40.98 3°22.96 57.3 14.8 52 30.4
2003-04-11 08:37:06 51°41 3°22.99 57.3 14.8 51 31.1
2003-04-11 08:37:10 51°41.01 3°23.01 57.3 14.8 51 31.5
2003-04-11 08:37:16 51°41.03 3°23.04 56.6 14.8 51 31.8
2003-04-11 08:37:20 51°41.04 3°23.06 57 14.8 51 31.9
2003-04-11 08:37:26 51°41.05 3°23.09 57.5 14.8 51 31.8
2003-04-11 08:37:30 51°41.06 3°23.11 57.6 14.8 52 32
2003-04-11 08:37:36 51°41.08 3°23.14 57.6 14.7 52 31.9
2003-04-11 08:37:40 51°41.09 3°23.17 57.8 14.7 52 31.8
2003-04-11 08:37:46 51°41.1 3°23.2 57.4 14.8 52 31.6
2003-04-11 08:37:50 51°41.11 3°23.22 57.3 14.8 51 31.7
2003-04-11 08:37:56 51°41.13 3°23.25 56.7 14.8 51 31.5
2003-04-11 08:38:00 51°41.14 3°23.27 56.8 14.8 51 31.2
2003-04-11 08:38:06 51°41.15 3°23.3 56.9 14.8 51 31.4
2003-04-11 08:38:10 51°41.16 3°23.32 56.6 14.8 51 31.5
2003-04-11 08:38:16 51°41.18 3°23.35 57.6 14.8 51 31.6
2003-04-11 08:38:20 51°41.19 3°23.37 57.2 14.9 51 31.6
2003-04-11 08:38:26 51°41.21 3°23.4 57.6 15 51 31.5
2003-04-11 08:38:30 51°41.22 3°23.42 56.9 14.9 51 31.5
2003-04-11 08:38:36 51°41.23 3°23.45 57.9 14.9 51 31.5
2003-04-11 08:38:40 51°41.24 3°23.47 56.9 14.9 51 31.7
2003-04-11 08:38:46 51°41.26 3°23.5 57.3 14.9 51 31.6
2003-04-11 08:38:50 51°41.27 3°23.53 55.9 14.9 50 31.8
2003-04-11 08:38:56 51°41.28 3°23.56 56.5 14.9 50 31.9
2003-04-11 08:39:00 51°41.29 3°23.58 55.9 14.9 50 32.1
2003-04-11 08:39:06 51°41.31 3°23.61 56.3 14.8 50 32
2003-04-11 08:39:10 51°41.32 3°23.63 56.6 14.8 50 32
2003-04-11 08:39:16 51°41.34 3°23.66 55.8 14.8 50 31.9
2003-04-11 08:39:20 51°41.35 3°23.68 56.3 14.8 50 32.1
2003-04-11 08:39:26 51°41.36 3°23.71 56.1 14.9 50 32
2003-04-11 08:39:30 51°41.37 3°23.73 55.8 14.9 49 32.1
2003-04-11 08:39:36 51°41.39 3°23.76 56 14.9 50 32.1
2003-04-11 08:39:40 51°41.4 3°23.78 56.3 14.9 50 32.3
2003-04-11 08:39:46 51°41.42 3°23.81 55.9 14.9 50 31.9
2003-04-11 08:39:50 51°41.43 3°23.83 56.3 14.9 50 32
2003-04-11 08:39:56 51°41.44 3°23.86 55.8 14.8 50 32.2
2003-04-11 08:40:00 51°41.45 3°23.88 56.4 14.8 50 32
2003-04-11 08:40:06 51°41.47 3°23.91 56.2 14.8 50 32.1
2003-04-11 08:40:10 51°41.48 3°23.93 56.4 14.8 50 32
2003-04-11 08:40:16 51°41.5 3°23.96 56.1 14.8 50 32.3
2003-04-11 08:40:20 51°41.51 3°23.98 56.2 14.9 50 32.2
2003-04-11 08:40:26 51°41.52 3°24.01 56.6 14.9 50 32.3
2003-04-11 08:40:30 51°41.53 3°24.03 56.1 14.8 50 32.3
2003-04-11 08:40:36 51°41.55 3°24.06 56.7 14.9 50 32
2003-04-11 08:40:40 51°41.56 3°24.08 56.6 14.8 50 32.2
2003-04-11 08:40:46 51°41.58 3°24.11 56.6 14.8 50 32.2
2003-04-11 08:40:50 51°41.59 3°24.13 56.2 14.8 50 32.3
2003-04-11 08:40:56 51°41.6 3°24.16 56.5 14.8 50 32.2
2003-04-11 08:41:00 51°41.61 3°24.18 56.3 14.8 50 32.1
2003-04-11 08:41:06 51°41.63 3°24.21 55.8 14.8 50 32.4
2003-04-11 08:41:10 51°41.64 3°24.23 56.3 14.9 49 32.3
2003-04-11 08:41:16 51°41.66 3°24.26 55.9 14.8 50 32.1
2003-04-11 08:41:20 51°41.67 3°24.28 57.2 14.9 50 32
2003-04-11 08:41:26 51°41.68 3°24.32 55.9 14.9 50 32.2
2003-04-11 08:41:30 51°41.69 3°24.34 57.2 14.9 51 32.2
2003-04-11 08:41:36 51°41.71 3°24.37 56.8 14.8 50 32.2
2003-04-11 08:41:40 51°41.72 3°24.39 56.5 14.8 50 32
2003-04-11 08:41:46 51°41.74 3°24.42 56.8 14.8 50 31.8
2003-04-11 08:41:50 51°41.75 3°24.44 56.2 14.8 50 31.7
2003-04-11 08:41:56 51°41.76 3°24.47 56.6 14.8 50 31.7
2003-04-11 08:42:00 51°41.77 3°24.49 56.6 14.8 50 31.8
2003-04-11 08:42:06 51°41.79 3°24.52 56.1 14.9 50 31.6
2003-04-11 08:42:10 51°41.8 3°24.54 56.1 14.9 50 31.7
2003-04-11 08:42:16 51°41.82 3°24.57 55.9 14.9 49 31.7
2003-04-11 08:42:20 51°41.83 3°24.59 55.9 14.9 50 31.6
2003-04-11 08:42:26 51°41.84 3°24.62 55.9 14.8 50 31.4
2003-04-11 08:42:30 51°41.85 3°24.64 56.8 14.8 50 31.3
2003-04-11 08:42:36 51°41.87 3°24.67 56.6 14.9 50 31.4
2003-04-11 08:42:40 51°41.88 3°24.69 56.6 14.9 50 31.5
2003-04-11 08:42:46 51°41.89 3°24.72 56.6 14.9 50 31.2
2003-04-11 08:42:50 51°41.91 3°24.74 56.7 14.9 50 30.7
2003-04-11 08:42:56 51°41.92 3°24.77 55.6 14.9 50 31
2003-04-11 08:43:00 51°41.93 3°24.79 56.6 14.9 50 30.6
2003-04-11 08:43:06 51°41.95 3°24.82 55.9 14.9 49 30.5
2003-04-11 08:43:10 51°41.96 3°24.84 55.8 14.9 50 30.5
2003-04-11 08:43:16 51°41.97 3°24.87 56.3 14.9 50 30.3
2003-04-11 08:43:20 51°41.98 3°24.89 56 14.8 50 30
2003-04-11 08:43:26 51°42 3°24.92 56.3 14.9 50 30.1
2003-04-11 08:43:30 51°42.01 3°24.94 56.1 14.9 50 29.8
2003-04-11 08:43:36 51°42.03 3°24.97 56.4 14.9 50 30
2003-04-11 08:43:40 51°42.04 3°24.99 56.2 14.8 50 30
2003-04-11 08:43:46 51°42.05 3°25.03 56.2 14.8 50 29.6
2003-04-11 08:43:50 51°42.06 3°25.05 56.6 14.9 50 29.7
2003-04-11 08:43:56 51°42.08 3°25.08 56.3 14.9 50 29.8
2003-04-11 08:44:00 51°42.09 3°25.1 56.4 14.8 50 29.5
2003-04-11 08:44:06 51°42.11 3°25.13 56.5 14.8 50 29.6
2003-04-11 08:44:10 51°42.12 3°25.15 56.1 14.8 50 29.4
2003-04-11 08:44:16 51°42.13 3°25.18 55.9 14.8 50 29.4
2003-04-11 08:44:20 51°42.14 3°25.2 56.5 14.8 50 29.4
2003-04-11 08:44:26 51°42.16 3°25.23 56 14.8 50 29.3
2003-04-11 08:44:30 51°42.17 3°25.25 56 14.8 50 28.6
2003-04-11 08:44:36 51°42.19 3°25.28 56.2 14.8 49 29.3
2003-04-11 08:44:40 51°42.2 3°25.3 55.9 14.8 50 29.1
2003-04-11 08:44:46 51°42.21 3°25.33 56.3 14.8 50 28.5
2003-04-11 08:44:50 51°42.22 3°25.35 56 14.9 50 29
2003-04-11 08:44:56 51°42.24 3°25.38 55.7 14.9 50 29.3
2003-04-11 08:45:00 51°42.25 3°25.4 56.5 14.9 50 29.4
2003-04-11 08:45:06 51°42.27 3°25.43 55.8 14.9 50 29.4
2003-04-11 08:45:10 51°42.28 3°25.45 56.2 15 50 29.4
2003-04-11 08:45:16 51°42.29 3°25.48 56.4 15 50 29.2
2003-04-11 08:45:20 51°42.3 3°25.5 56.6 15 50 29.3
2003-04-11 08:45:26 51°42.32 3°25.53 56.6 15 50 29.3
2003-04-11 08:45:30 51°42.33 3°25.55 56.2 15 50 29.2
2003-04-11 08:45:36 51°42.35 3°25.58 56.2 15 50 29.3
2003-04-11 08:45:40 51°42.36 3°25.61 56.3 15 50 29.2
2003-04-11 08:45:46 51°42.37 3°25.64 56.6 15 50 29.1
2003-04-11 08:45:50 51°42.38 3°25.66 56.3 14.9 50 29.1
2003-04-11 08:45:56 51°42.4 3°25.69 56.5 15 50 29.1
2003-04-11 08:46:00 51°42.41 3°25.71 56.3 14.9 50 29.7
2003-04-11 08:46:06 51°42.43 3°25.74 56.2 14.9 50 30
2003-04-11 08:46:10 51°42.44 3°25.76 56.2 14.9 50 30.3
2003-04-11 08:46:16 51°42.45 3°25.79 56.1 14.9 50 30.1
2003-04-11 08:46:20 51°42.46 3°25.81 55.8 14.9 50 30.3
2003-04-11 08:46:26 51°42.48 3°25.84 56.2 14.9 50 30.6
2003-04-11 08:46:30 51°42.49 3°25.86 56 14.9 50 30.7
2003-04-11 08:46:36 51°42.51 3°25.89 56 14.9 50 30.5
2003-04-11 08:46:40 51°42.52 3°25.91 56.1 14.9 50 30.5
2003-04-11 08:46:46 51°42.53 3°25.94 55.6 14.9 50 30.3
2003-04-11 08:46:50 51°42.54 3°25.96 56.5 14.9 51 30
2003-04-11 08:46:56 51°42.56 3°25.99 56.2 14.9 50 28.8
2003-04-11 08:47:00 51°42.57 3°26.01 56.6 14.9 51 28.9
2003-04-11 08:47:06 51°42.59 3°26.04 56.1 14.8 50 28.4
2003-04-11 08:47:10 51°42.6 3°26.06 56.3 14.8 51 28.5
2003-04-11 08:47:16 51°42.61 3°26.09 56 14.8 50 28.9
2003-04-11 08:47:20 51°42.62 3°26.12 55.8 14.8 50 28.9
2003-04-11 08:47:26 51°42.64 3°26.15 56.3 14.9 50 28.8
2003-04-11 08:47:30 51°42.65 3°26.17 56 14.9 50 28.7
2003-04-11 08:47:36 51°42.66 3°26.2 56.6 14.9 50 28.6
2003-04-11 08:47:40 51°42.68 3°26.22 56.3 14.9 50 28.9
2003-04-11 08:47:46 51°42.69 3°26.25 56.3 14.9 50 28.7
2003-04-11 08:47:50 51°42.7 3°26.27 56.4 14.9 50 29.3
2003-04-11 08:47:56 51°42.72 3°26.3 55.8 14.9 50 29.5
2003-04-11 08:48:00 51°42.73 3°26.32 56 14.9 50 29.3
2003-04-11 08:48:06 51°42.74 3°26.35 56.3 14.9 50 30
2003-04-11 08:48:10 51°42.75 3°26.37 56.3 14.9 50 30.2
2003-04-11 08:48:16 51°42.77 3°26.4 56.2 14.9 50 30.1
2003-04-11 08:48:20 51°42.78 3°26.42 56.1 14.9 50 30.1
2003-04-11 08:48:26 51°42.8 3°26.45 55.8 14.8 50 30.3
2003-04-11 08:48:30 51°42.81 3°26.47 56.4 14.8 51 30.5
2003-04-11 08:48:36 51°42.82 3°26.5 56.4 14.8 50 30.7
2003-04-11 08:48:40 51°42.83 3°26.52 56.2 14.8 50 30.7
2003-04-11 08:48:46 51°42.85 3°26.55 55.9 14.8 50 30.4
2003-04-11 08:48:50 51°42.86 3°26.57 56.5 14.8 50 30.1
2003-04-11 08:48:56 51°42.88 3°26.61 56.3 14.8 50 30.1
2003-04-11 08:49:00 51°42.89 3°26.63 56.2 14.9 50 30
2003-04-11 08:49:06 51°42.9 3°26.66 56.1 14.9 50 30.2
2003-04-11 08:49:10 51°42.91 3°26.68 56.5 14.9 51 30.5
2003-04-11 08:49:16 51°42.93 3°26.71 56.7 14.9 51 30.4
2003-04-11 08:49:20 51°42.94 3°26.73 56.5 15 51 30.4
2003-04-11 08:49:26 51°42.95 3°26.76 56.3 15 51 30.6
2003-04-11 08:49:30 51°42.97 3°26.78 56.3 15 50 30.4
2003-04-11 08:49:36 51°42.98 3°26.81 56.5 15 51 30
2003-04-11 08:49:40 51°42.99 3°26.83 56.8 15 51 29.7
2003-04-11 08:49:46 51°43.01 3°26.86 56.4 14.9 51 29.2
2003-04-11 08:49:50 51°43.02 3°26.88 56.6 14.9 50 29.3
2003-04-11 08:49:56 51°43.03 3°26.91 56.3 15 51 30.3
2003-04-11 08:50:00 51°43.04 3°26.93 56.3 14.9 50 30
2003-04-11 08:50:06 51°43.06 3°26.97 56.3 14.8 51 29.9
2003-04-11 08:50:10 51°43.07 3°26.99 56.3 14.8 50 30
2003-04-11 08:50:16 51°43.09 3°27.02 55.7 14.9 50 29.6
2003-04-11 08:50:20 51°43.1 3°27.04 56.1 14.9 50 29.9
2003-04-11 08:50:26 51°43.11 3°27.07 56.3 14.9 50 29.8
2003-04-11 08:50:30 51°43.12 3°27.09 56.3 14.9 50 29.9
2003-04-11 08:50:36 51°43.14 3°27.12 56.2 14.9 50 29.6
2003-04-11 08:50:40 51°43.15 3°27.14 56.2 15 50 29.4
2003-04-11 08:50:46 51°43.17 3°27.17 55.9 15 50 29.1
2003-04-11 08:50:50 51°43.18 3°27.19 56.3 15 50 29
2003-04-11 08:50:56 51°43.19 3°27.22 56.5 15 51 28.7
2003-04-11 08:51:00 51°43.2 3°27.24 57.1 15 51 29.1
2003-04-11 08:51:06 51°43.22 3°27.27 55.9 14.9 50 29.2
2003-04-11 08:51:10 51°43.23 3°27.29 56.6 14.9 50 29.2
2003-04-11 08:51:16 51°43.25 3°27.32 56.2 14.9 50 28.8
2003-04-11 08:51:20 51°43.26 3°27.34 55.7 15 50 28.7
2003-04-11 08:51:26 51°43.27 3°27.38 56.3 14.9 50 28.7
2003-04-11 08:51:30 51°43.28 3°27.4 56.3 14.9 50 28.7
2003-04-11 08:51:36 51°43.3 3°27.43 56 15 50 28.5
2003-04-11 08:51:40 51°43.31 3°27.45 56.3 15 50 28.7
2003-04-11 08:51:46 51°43.32 3°27.48 55.7 14.9 50 28.5
2003-04-11 08:51:50 51°43.34 3°27.5 56.5 14.9 51 28.5
2003-04-11 08:51:56 51°43.35 3°27.53 56.2 15 51 28.6
2003-04-11 08:52:00 51°43.36 3°27.55 58.4 15 52 28.4
2003-04-11 08:52:06 51°43.38 3°27.58 58.5 15 53 28.1
2003-04-11 08:52:10 51°43.38 3°27.61 60.1 15 55 27.9
2003-04-11 08:52:16 51°43.4 3°27.64 61.1 15 55 27.6
2003-04-11 08:52:20 51°43.41 3°27.66 61.7 15 56 27.3
2003-04-11 08:52:26 51°43.42 3°27.69 62.2 14.9 56 27.9
2003-04-11 08:52:30 51°43.43 3°27.72 63.1 14.8 57 27.6
2003-04-11 08:52:36 51°43.44 3°27.75 62.4 14.8 56 27.5
2003-04-11 08:52:40 51°43.45 3°27.77 62.3 14.8 56 27.2
2003-04-11 08:52:46 51°43.47 3°27.8 63.4 14.8 57 27.3
2003-04-11 08:52:50 51°43.48 3°27.83 62.8 14.8 57 27
2003-04-11 08:52:56 51°43.49 3°27.86 63.1 14.8 57 26.4
2003-04-11 08:53:00 51°43.5 3°27.88 62.8 14.8 56 26.1
2003-04-11 08:53:06 51°43.51 3°27.91 62.6 14.9 56 25.9
2003-04-11 08:53:10 51°43.52 3°27.94 62.7 14.9 56 25.1
2003-04-11 08:53:16 51°43.54 3°27.97 63.3 14.9 57 23.6
2003-04-11 08:53:20 51°43.55 3°27.99 62.2 14.9 56 26.5
2003-04-11 08:53:26 51°43.56 3°28.03 62.9 14.8 57 27.2
2003-04-11 08:53:30 51°43.57 3°28.05 62.4 14.8 56 26.8
2003-04-11 08:53:36 51°43.58 3°28.08 62 14.8 56 26.3
2003-04-11 08:53:40 51°43.59 3°28.1 62.4 14.7 56 25.8
2003-04-11 08:53:46 51°43.6 3°28.14 62.9 14.7 57 25.3
2003-04-11 08:53:50 51°43.61 3°28.16 62.7 14.7 57 25.5
2003-04-11 08:53:56 51°43.63 3°28.19 62.6 14.8 57 25.2
2003-04-11 08:54:00 51°43.64 3°28.21 62.7 14.8 57 25
2003-04-11 08:54:06 51°43.65 3°28.25 62.5 14.8 56 25
2003-04-11 08:54:10 51°43.66 3°28.27 62.7 14.8 57 24.7
2003-04-11 08:54:16 51°43.67 3°28.3 62.5 14.8 56 24.6
2003-04-11 08:54:20 51°43.68 3°28.32 63 14.8 57 24.2
2003-04-11 08:54:26 51°43.69 3°28.36 62.9 14.8 56 23.8
2003-04-11 08:54:30 51°43.7 3°28.38 63 14.8 57 24.1
2003-04-11 08:54:36 51°43.72 3°28.41 63.6 14.8 57 24.2
2003-04-11 08:54:40 51°43.73 3°28.43 62.4 14.8 56 24
2003-04-11 08:54:46 51°43.74 3°28.47 63 14.8 57 23.7
2003-04-11 08:54:50 51°43.75 3°28.49 62.7 14.8 56 23.1
2003-04-11 08:54:56 51°43.76 3°28.52 62.4 14.8 56 22.6
2003-04-11 08:55:00 51°43.77 3°28.54 62.4 14.8 56 23.5
2003-04-11 08:55:06 51°43.79 3°28.58 62.3 14.8 56 23.2
2003-04-11 08:55:10 51°43.79 3°28.6 62.5 14.8 56 22.7
2003-04-11 08:55:16 51°43.81 3°28.63 62.7 14.8 57 22.5
2003-04-11 08:55:20 51°43.82 3°28.65 62.3 14.8 56 22.6
2003-04-11 08:55:26 51°43.83 3°28.69 62.7 14.8 56 22.1
2003-04-11 08:55:30 51°43.84 3°28.71 61.9 14.8 56 21.7
2003-04-11 08:55:36 51°43.85 3°28.74 62.6 14.9 56 21.5
2003-04-11 08:55:40 51°43.86 3°28.76 62 14.9 56 21.6
2003-04-11 08:55:46 51°43.88 3°28.8 62.6 14.9 57 20
2003-04-11 08:55:50 51°43.89 3°28.82 62.2 14.9 56 21.5
2003-04-11 08:55:56 51°43.9 3°28.85 62.9 14.9 57 21.1
2003-04-11 08:56:00 51°43.91 3°28.87 62.4 14.9 56 20.2
2003-04-11 08:56:06 51°43.92 3°28.91 63.1 14.9 57 21.5
2003-04-11 08:56:10 51°43.93 3°28.93 63.3 14.8 56 20.6
2003-04-11 08:56:16 51°43.94 3°28.96 63 14.8 57 21.1
2003-04-11 08:56:20 51°43.95 3°28.99 63 14.8 57 19.9
2003-04-11 08:56:26 51°43.97 3°29.02 62.1 14.9 57 21
2003-04-11 08:56:30 51°43.98 3°29.04 62.8 14.9 56 20
2003-04-11 08:56:36 51°43.99 3°29.08 62.9 14.9 57 21.1
2003-04-11 08:56:40 51°44 3°29.1 64.1 14.9 58 20.9
2003-04-11 08:56:46 51°44.01 3°29.13 65.1 15 59 18
2003-04-11 08:56:50 51°44.02 3°29.16 65.8 15 60 20.8
2003-04-11 08:56:56 51°44.03 3°29.19 67 14.9 60 20.2
2003-04-11 08:57:00 51°44.04 3°29.21 65.9 14.9 60 20.4
2003-04-11 08:57:06 51°44.05 3°29.25 67 14.9 60 21.1
2003-04-11 08:57:10 51°44.06 3°29.27 66.4 14.9 60 20.1
2003-04-11 08:57:16 51°44.07 3°29.31 66.2 14.9 60 20.4
2003-04-11 08:57:20 51°44.08 3°29.33 66.6 14.9 60 20.1
2003-04-11 08:57:26 51°44.09 3°29.36 66.6 15 60 20.4
2003-04-11 08:57:30 51°44.1 3°29.39 66.4 15 60 18.5
2003-04-11 08:57:36 51°44.11 3°29.42 67.1 14.9 61 20
2003-04-11 08:57:40 51°44.12 3°29.44 66.7 14.9 60 18.8
2003-04-11 08:57:46 51°44.13 3°29.48 66.1 14.9 60 20.6
2003-04-11 08:57:50 51°44.14 3°29.5 66.8 14.9 60 19.7
2003-04-11 08:57:56 51°44.16 3°29.54 66.9 14.9 60 21
2003-04-11 08:58:00 51°44.16 3°29.56 66.5 14.9 60 19.6
2003-04-11 08:58:06 51°44.18 3°29.59 66.1 14.9 60 20.9
2003-04-11 08:58:10 51°44.18 3°29.62 66.8 14.9 60 18.8
2003-04-11 08:58:16 51°44.2 3°29.65 66.6 15 60 20.9
2003-04-11 08:58:20 51°44.2 3°29.68 66.5 14.9 60 18.2
2003-04-11 08:58:26 51°44.22 3°29.71 66.6 14.9 61 19.9
2003-04-11 08:58:30 51°44.23 3°29.73 66.1 14.8 60 19.4
2003-04-11 08:58:36 51°44.24 3°29.77 67.2 14.9 61 20.7
2003-04-11 08:58:40 51°44.25 3°29.79 66.5 15 60 21
2003-04-11 08:58:46 51°44.26 3°29.83 66.5 14.9 60 20.8
2003-04-11 08:58:50 51°44.27 3°29.85 67.2 14.9 60 20.2
2003-04-11 08:58:56 51°44.28 3°29.88 66.6 14.9 60 21.2
2003-04-11 08:59:00 51°44.29 3°29.91 66.3 14.9 60 20.6
2003-04-11 08:59:06 51°44.3 3°29.94 65.8 14.9 58 21.4
2003-04-11 08:59:10 51°44.31 3°29.96 65.5 15 58 20.7
2003-04-11 08:59:16 51°44.32 3°30 65.9 15 58 20.6
2003-04-11 08:59:20 51°44.33 3°30.02 66 15 59 21.3
2003-04-11 08:59:26 51°44.34 3°30.06 67.2 15 59 21.4
2003-04-11 08:59:30 51°44.35 3°30.08 66.5 15 59 21.4
2003-04-11 08:59:36 51°44.37 3°30.11 66.5 15 59 20.2
2003-04-11 08:59:40 51°44.37 3°30.14 66.4 14.9 59 19.9
2003-04-11 08:59:46 51°44.39 3°30.17 66.5 14.9 59 21.4
2003-04-11 08:59:50 51°44.4 3°30.19 66.1 15 58 21.8
2003-04-11 08:59:56 51°44.41 3°30.23 66.8 14.9 59 20.9
2003-04-11 09:00:00 51°44.42 3°30.25 66.8 14.9 59 22
2003-04-11 09:00:06 51°44.43 3°30.28 66.4 15 59 21
2003-04-11 09:00:10 51°44.44 3°30.31 67.1 15 59 21.9
2003-04-11 09:00:16 51°44.45 3°30.34 66.3 15 59 22.1
2003-04-11 09:00:20 51°44.46 3°30.36 66.8 15 60 21.6
2003-04-11 09:00:26 51°44.47 3°30.4 66.6 15.1 59 22
2003-04-11 09:00:30 51°44.48 3°30.42 66.2 15.1 60 21.9
2003-04-11 09:00:36 51°44.49 3°30.46 67 15 59 20.5
2003-04-11 09:00:40 51°44.5 3°30.48 66.9 15 60 21.9
2003-04-11 09:00:46 51°44.51 3°30.51 66.9 15 59 22
2003-04-11 09:00:50 51°44.52 3°30.54 66.3 15 59 19.5
2003-04-11 09:00:56 51°44.54 3°30.57 67 15.1 59 21.8
2003-04-11 09:01:00 51°44.54 3°30.6 66.5 15.1 59 21.8
2003-04-11 09:01:06 51°44.56 3°30.63 66.3 15.1 59 22.4
2003-04-11 09:01:10 51°44.57 3°30.65 65.6 15.1 59 21.5
2003-04-11 09:01:16 51°44.58 3°30.69 66 15.1 59 22.3
2003-04-11 09:01:20 51°44.59 3°30.71 66.2 15.1 59 21.2
2003-04-11 09:01:26 51°44.6 3°30.75 65.8 15.1 59 22.1
2003-04-11 09:01:30 51°44.61 3°30.77 66.4 15.1 59 21.9
2003-04-11 09:01:36 51°44.62 3°30.8 66 15.1 59 22.2
2003-04-11 09:01:40 51°44.63 3°30.83 67 15.1 60 22.2
2003-04-11 09:01:46 51°44.64 3°30.86 66.8 15.1 60 22.1
2003-04-11 09:01:50 51°44.65 3°30.89 67.2 15.1 60 21.7
2003-04-11 09:01:56 51°44.66 3°30.92 67.3 15.1 60 21.9
2003-04-11 09:02:00 51°44.67 3°30.94 67.4 15.1 60 20.9
2003-04-11 09:02:06 51°44.68 3°30.98 66.3 15.1 60 21.9
2003-04-11 09:02:10 51°44.69 3°31 66.7 15.1 60 22.6
2003-04-11 09:02:16 51°44.71 3°31.04 66.6 15.2 60 21.8
2003-04-11 09:02:20 51°44.71 3°31.06 66.2 15.2 60 21.9
2003-04-11 09:02:26 51°44.73 3°31.1 66.7 15.2 60 21.9
2003-04-11 09:02:30 51°44.74 3°31.12 66.7 15.1 60 21.8
2003-04-11 09:02:36 51°44.75 3°31.16 66.5 15.1 60 20.5
2003-04-11 09:02:40 51°44.76 3°31.18 66.7 15.2 60 22.1
2003-04-11 09:02:46 51°44.77 3°31.21 66.3 15.2 59 21
2003-04-11 09:02:50 51°44.78 3°31.24 65.7 15.2 59 22.4
2003-04-11 09:02:56 51°44.79 3°31.27 66.8 15.2 59 21.5
2003-04-11 09:03:00 51°44.8 3°31.3 65.9 15.2 59 21.2
2003-04-11 09:03:06 51°44.81 3°31.33 65.6 15.2 59 22.3
2003-04-11 09:03:10 51°44.82 3°31.35 66.2 15.2 59 21
2003-04-11 09:03:16 51°44.84 3°31.39 66.4 15.2 59 22
2003-04-11 09:03:20 51°44.84 3°31.41 66.2 15.2 59 22.2
2003-04-11 09:03:26 51°44.86 3°31.45 66.2 15.2 59 22.6
2003-04-11 09:03:30 51°44.87 3°31.47 66.1 15.2 59 22.9
2003-04-11 09:03:36 51°44.88 3°31.51 66 15.1 59 23.1
2003-04-11 09:03:40 51°44.89 3°31.53 65.9 15.1 59 23.2
2003-04-11 09:03:46 51°44.9 3°31.56 66.8 15.1 60 22.7
2003-04-11 09:03:50 51°44.91 3°31.59 66.6 15.1 60 23
2003-04-11 09:03:56 51°44.92 3°31.62 66.2 15.1 59 22.3
2003-04-11 09:04:00 51°44.93 3°31.65 66.1 15.1 60 22.8
2003-04-11 09:04:06 51°44.94 3°31.68 66.7 15.2 59 20.8
2003-04-11 09:04:10 51°44.95 3°31.7 66.1 15.2 60 22.3
2003-04-11 09:04:16 51°44.96 3°31.74 66.3 15.2 59 21.6
2003-04-11 09:04:20 51°44.97 3°31.76 65.4 15.1 59 21.3
2003-04-11 09:04:26 51°44.99 3°31.8 66.8 15.1 60 21.8
2003-04-11 09:04:30 51°44.99 3°31.82 66.2 15.1 60 20.3
2003-04-11 09:04:36 51°45.01 3°31.86 66.7 15 60 21.8
2003-04-11 09:04:40 51°45.01 3°31.88 66.5 15 60 20.5
2003-04-11 09:04:46 51°45.03 3°31.91 66.3 15.1 60 21.9
2003-04-11 09:04:50 51°45.04 3°31.94 66.5 15.1 60 22.1
2003-04-11 09:04:56 51°45.05 3°31.97 65.9 15.1 60 20.9
2003-04-11 09:05:00 51°45.06 3°32 66.2 15.1 60 21.2
2003-04-11 09:05:06 51°45.07 3°32.03 66.5 15.1 60 21.6
2003-04-11 09:05:10 51°45.08 3°32.05 66 15.1 60 21.9
2003-04-11 09:05:16 51°45.09 3°32.09 67 15.1 60 21.8
2003-04-11 09:05:20 51°45.1 3°32.11 66.1 15.1 60 22.3
2003-04-11 09:05:26 51°45.11 3°32.15 66.7 15.1 61 22.5
2003-04-11 09:05:30 51°45.12 3°32.17 65.9 15.2 60 22.1
2003-04-11 09:05:36 51°45.13 3°32.21 66.3 15.2 60 21
2003-04-11 09:05:40 51°45.14 3°32.23 66.4 15.1 60 21.3
2003-04-11 09:05:46 51°45.15 3°32.26 66.4 15.1 60 21.6
2003-04-11 09:05:50 51°45.16 3°32.29 66 15.1 60 20.8
2003-04-11 09:05:56 51°45.17 3°32.32 66.4 15.1 60 20.7
2003-04-11 09:06:00 51°45.18 3°32.35 66.7 15.1 60 21.2
2003-04-11 09:06:06 51°45.2 3°32.38 65.9 15.2 60 21.6
2003-04-11 09:06:10 51°45.2 3°32.41 66.4 15.2 60 20.6
2003-04-11 09:06:16 51°45.22 3°32.44 66.6 15.1 60 20.4
2003-04-11 09:06:20 51°45.22 3°32.46 66.4 15.1 60 20.9
2003-04-11 09:06:26 51°45.24 3°32.5 65.8 15.1 59 20.9
2003-04-11 09:06:30 51°45.24 3°32.52 65.8 15.1 60 21.3
2003-04-11 09:06:36 51°45.26 3°32.56 66.5 15.1 59 21.4
2003-04-11 09:06:40 51°45.27 3°32.58 65.8 15.1 60 21.3
2003-04-11 09:06:46 51°45.28 3°32.62 66.1 15.1 60 21.3
2003-04-11 09:06:50 51°45.29 3°32.64 66.6 15.1 60 21.5
2003-04-11 09:06:56 51°45.3 3°32.67 66.2 15.1 60 21.1
2003-04-11 09:07:00 51°45.31 3°32.7 66.2 15.1 60 21.3
2003-04-11 09:07:06 51°45.32 3°32.73 66.2 15.1 60 20.9
2003-04-11 09:07:10 51°45.33 3°32.76 66.6 15.1 60 19.6
2003-04-11 09:07:16 51°45.34 3°32.79 66.2 15.1 60 20
2003-04-11 09:07:20 51°45.35 3°32.81 66.3 15.1 60 20.1
2003-04-11 09:07:26 51°45.36 3°32.85 66.3 15.1 59 20.9
2003-04-11 09:07:30 51°45.37 3°32.87 66 15.1 60 21
2003-04-11 09:07:36 51°45.38 3°32.91 66.5 15.1 59 20.9
2003-04-11 09:07:40 51°45.39 3°32.93 65.8 15.1 60 20.1
2003-04-11 09:07:46 51°45.41 3°32.97 66.3 15.1 59 20.8
2003-04-11 09:07:50 51°45.41 3°32.99 66 15.1 60 21.1
2003-04-11 09:07:56 51°45.43 3°33.02 65.9 15 59 18.3
2003-04-11 09:08:00 51°45.44 3°33.05 66 14.9 59 20.7
2003-04-11 09:08:06 51°45.45 3°33.08 66.4 14.9 60 20.7
2003-04-11 09:08:10 51°45.46 3°33.1 65.3 14.8 60 21
2003-04-11 09:08:16 51°45.47 3°33.14 66.5 14.8 60 21
2003-04-11 09:08:20 51°45.48 3°33.16 65.9 14.8 60 20.8
2003-04-11 09:08:26 51°45.49 3°33.19 65.4 14.8 60 20.9
2003-04-11 09:08:30 51°45.5 3°33.22 66 14.7 60 20.6
2003-04-11 09:08:36 51°45.51 3°33.25 66.7 14.7 60 18.2
2003-04-11 09:08:40 51°45.52 3°33.27 65.8 14.7 60 20.4
2003-04-11 09:08:46 51°45.53 3°33.31 66.1 14.7 59 20.7
2003-04-11 09:08:50 51°45.54 3°33.33 65.7 14.7 60 20.7
2003-04-11 09:08:56 51°45.55 3°33.36 65.9 14.7 59 20.1
2003-04-11 09:09:00 51°45.56 3°33.39 66 14.6 60 19.7
2003-04-11 09:09:06 51°45.57 3°33.42 66.3 14.6 60 19.7
2003-04-11 09:09:10 51°45.58 3°33.44 65.9 14.6 59 20.4
2003-04-11 09:09:16 51°45.59 3°33.48 66.6 14.7 60 20.3
2003-04-11 09:09:20 51°45.6 3°33.5 65.3 14.7 59 20
2003-04-11 09:09:26 51°45.61 3°33.53 66 14.7 60 20.2
2003-04-11 09:09:30 51°45.62 3°33.56 66.9 14.6 60 19.9
2003-04-11 09:09:36 51°45.63 3°33.59 65.8 14.7 60 19.5
2003-04-11 09:09:40 51°45.64 3°33.61 66.2 14.7 60 17.7
2003-04-11 09:09:46 51°45.65 3°33.65 66.1 14.7 60 19.3
2003-04-11 09:09:50 51°45.66 3°33.67 66 14.7 60 18
2003-04-11 09:09:56 51°45.67 3°33.7 65.7 14.6 59 19.3
2003-04-11 09:10:00 51°45.68 3°33.73 66.3 14.7 60 17.8
2003-04-11 09:10:06 51°45.69 3°33.76 65.9 14.7 59 19.9
2003-04-11 09:10:10 51°45.7 3°33.78 66.5 14.7 60 19.8
2003-04-11 09:10:16 51°45.72 3°33.82 66.1 14.7 59 19.8
2003-04-11 09:10:20 51°45.72 3°33.84 65.3 14.7 59 19.7
2003-04-11 09:10:26 51°45.74 3°33.87 66.2 14.7 60 19.4
2003-04-11 09:10:30 51°45.74 3°33.9 66.2 14.7 60 17.4
2003-04-11 09:10:36 51°45.76 3°33.93 66.6 14.7 60 19.6
2003-04-11 09:10:40 51°45.77 3°33.95 65.6 14.7 59 19.7
2003-04-11 09:10:46 51°45.78 3°33.99 66.7 14.7 60 19.5
2003-04-11 09:10:50 51°45.79 3°34.01 65.9 14.7 59 18.1
2003-04-11 09:10:56 51°45.8 3°34.04 66.2 14.7 60 19.2
2003-04-11 09:11:00 51°45.81 3°34.07 66.3 14.7 59 19.5
2003-04-11 09:11:06 51°45.82 3°34.1 66.2 14.6 60 19
2003-04-11 09:11:10 51°45.83 3°34.12 66.2 14.7 59 17.6
2003-04-11 09:11:16 51°45.84 3°34.16 66 14.7 60 19.1
2003-04-11 09:11:20 51°45.85 3°34.18 66.5 14.7 60 18.2
2003-04-11 09:11:26 51°45.86 3°34.21 65.7 14.7 59 17.8
2003-04-11 09:11:30 51°45.87 3°34.24 66.4 14.6 60 18.9
2003-04-11 09:11:36 51°45.88 3°34.27 66 14.6 60 18.8
2003-04-11 09:11:40 51°45.89 3°34.29 66.4 14.6 60 18.9
2003-04-11 09:11:46 51°45.9 3°34.33 66.5 14.7 60 18.9
2003-04-11 09:11:50 51°45.91 3°34.35 65.8 14.7 59 18.6
2003-04-11 09:11:56 51°45.92 3°34.38 66.3 14.6 60 18.3
2003-04-11 09:12:00 51°45.93 3°34.41 66.5 14.7 60 18
2003-04-11 09:12:06 51°45.94 3°34.44 66.4 14.6 60 17
2003-04-11 09:12:10 51°45.95 3°34.46 66.8 14.6 60 18.5
2003-04-11 09:12:16 51°45.96 3°34.5 66.8 14.7 61 17.5
2003-04-11 09:12:20 51°45.97 3°34.52 68.2 14.7 62 15.2
2003-04-11 09:12:26 51°45.98 3°34.56 69.5 14.6 63 17.9
2003-04-11 09:12:30 51°45.99 3°34.58 70.9 14.6 64 18.2
2003-04-11 09:12:36 51°46 3°34.62 71.5 14.7 65 18.2
2003-04-11 09:12:40 51°46 3°34.64 72.8 14.7 66 18
2003-04-11 09:12:46 51°46.01 3°34.68 74 14.7 68 17.8
2003-04-11 09:12:50 51°46.02 3°34.7 74.9 14.7 68 17.6
2003-04-11 09:12:56 51°46.03 3°34.74 75.4 14.7 69 17.6
2003-04-11 09:13:00 51°46.03 3°34.76 74.9 14.7 68 17.4
2003-04-11 09:13:06 51°46.04 3°34.8 75.9 14.7 69 16.9
2003-04-11 09:13:10 51°46.05 3°34.82 75.8 14.7 69 15.7
2003-04-11 09:13:16 51°46.05 3°34.86 76.1 14.6 69 17.5
2003-04-11 09:13:20 51°46.06 3°34.89 76.7 14.7 70 17.5
2003-04-11 09:13:26 51°46.07 3°34.92 76.7 14.7 70 17.3
2003-04-11 09:13:30 51°46.08 3°34.95 76.7 14.7 70 16.9
2003-04-11 09:13:36 51°46.08 3°34.98 76.1 14.8 70 16.3
2003-04-11 09:13:40 51°46.09 3°35.01 75.6 14.7 69 15.6
2003-04-11 09:13:46 51°46.1 3°35.05 76.1 14.7 69 16.9
2003-04-11 09:13:50 51°46.1 3°35.07 76.3 14.7 69 16.9
2003-04-11 09:13:56 51°46.11 3°35.11 76.7 14.7 70 16.4
2003-04-11 09:14:00 51°46.12 3°35.13 76 14.7 69 16.5
2003-04-11 09:14:06 51°46.12 3°35.17 78 14.6 72 16.3
2003-04-11 09:14:10 51°46.13 3°35.19 78.3 14.6 71 15.9
2003-04-11 09:14:16 51°46.14 3°35.23 79.7 14.6 73 15.3
2003-04-11 09:14:20 51°46.14 3°35.26 79.3 14.6 72 14.9
2003-04-11 09:14:26 51°46.15 3°35.29 79.8 14.5 73 15.4
2003-04-11 09:14:30 51°46.15 3°35.32 80.5 14.5 73 15.9
2003-04-11 09:14:36 51°46.16 3°35.36 81.2 14.5 74 15.8
2003-04-11 09:14:40 51°46.16 3°35.38 81.2 14.5 74 15.7
2003-04-11 09:14:46 51°46.17 3°35.42 81.6 14.6 75 15.4
2003-04-11 09:14:50 51°46.18 3°35.44 80.7 14.6 74 15.3
2003-04-11 09:14:56 51°46.18 3°35.48 81.2 14.6 75 15.1
2003-04-11 09:15:00 51°46.19 3°35.51 81.6 14.6 74 14.5
2003-04-11 09:15:06 51°46.19 3°35.54 81.4 14.6 75 15
2003-04-11 09:15:10 51°46.2 3°35.57 81.7 14.5 75 15.2
2003-04-11 09:15:16 51°46.2 3°35.61 80.7 14.6 74 14.8
2003-04-11 09:15:20 51°46.21 3°35.63 81.5 14.6 74 14.9
2003-04-11 09:15:26 51°46.21 3°35.67 81.1 14.6 74 14.7
2003-04-11 09:15:30 51°46.22 3°35.69 81 14.5 74 14.5
2003-04-11 09:15:36 51°46.23 3°35.73 81.6 14.5 74 14.6
2003-04-11 09:15:40 51°46.23 3°35.76 80.6 14.5 74 14.6
2003-04-11 09:15:46 51°46.24 3°35.79 81.2 14.6 74 14.4
2003-04-11 09:15:50 51°46.24 3°35.82 80.7 14.6 74 14.5
2003-04-11 09:15:56 51°46.25 3°35.86 81.3 14.6 74 14.2
2003-04-11 09:16:00 51°46.25 3°35.88 81.1 14.6 74 13.9
2003-04-11 09:16:06 51°46.26 3°35.92 80.9 14.5 74 14
2003-04-11 09:16:10 51°46.26 3°35.94 80.4 14.5 74 14.1
2003-04-11 09:16:16 51°46.27 3°35.98 80.9 14.5 74 14.2
2003-04-11 09:16:20 51°46.27 3°36.01 81.2 14.5 74 14.3
2003-04-11 09:16:26 51°46.28 3°36.04 80.7 14.6 74 14.2
2003-04-11 09:16:30 51°46.28 3°36.07 80.5 14.6 74 14.2
2003-04-11 09:16:36 51°46.29 3°36.11 80.9 14.5 74 13.9
2003-04-11 09:16:40 51°46.3 3°36.13 80.5 14.5 73 13.7
2003-04-11 09:16:46 51°46.3 3°36.17 81.4 14.5 74 14.3
2003-04-11 09:16:50 51°46.31 3°36.19 80.1 14.5 73 14
2003-04-11 09:16:56 51°46.31 3°36.23 80.4 14.6 74 13.9
2003-04-11 09:17:00 51°46.32 3°36.26 80.9 14.6 73 13.9
2003-04-11 09:17:06 51°46.33 3°36.29 79 14.6 72 13.8
2003-04-11 09:17:10 51°46.33 3°36.32 79.1 14.6 72 13.7
2003-04-11 09:17:16 51°46.34 3°36.36 77.4 14.7 70 13.6
2003-04-11 09:17:20 51°46.35 3°36.38 77 14.7 70 13.8
2003-04-11 09:17:26 51°46.36 3°36.42 77.1 14.6 70 14.1
2003-04-11 09:17:30 51°46.36 3°36.44 76.9 14.6 70 13.8
2003-04-11 09:17:36 51°46.37 3°36.48 76.7 14.7 70 13.4
2003-04-11 09:17:40 51°46.37 3°36.5 76.7 14.7 70 13
2003-04-11 09:17:46 51°46.38 3°36.54 76.7 14.7 69 13.6
2003-04-11 09:17:50 51°46.39 3°36.56 76.7 14.6 70 13.8
2003-04-11 09:17:56 51°46.4 3°36.6 76.9 14.7 70 13.6
2003-04-11 09:18:00 51°46.4 3°36.63 76.1 14.7 69 13.7
2003-04-11 09:18:06 51°46.41 3°36.66 76.4 14.7 70 14
2003-04-11 09:18:10 51°46.42 3°36.69 76.7 14.6 69 13.7
2003-04-11 09:18:16 51°46.43 3°36.72 76.9 14.7 69 13.8
2003-04-11 09:18:20 51°46.43 3°36.75 75.5 14.6 68 13
2003-04-11 09:18:26 51°46.44 3°36.78 76 14.6 69 13.8
2003-04-11 09:18:30 51°46.45 3°36.81 74.7 14.7 68 13.8
2003-04-11 09:18:36 51°46.46 3°36.85 75 14.7 69 14
2003-04-11 09:18:40 51°46.46 3°36.87 74.7 14.7 68 13.9
2003-04-11 09:18:46 51°46.47 3°36.91 74.7 14.7 68 13.5
2003-04-11 09:18:50 51°46.48 3°36.93 74.7 14.7 68 13.6
2003-04-11 09:18:56 51°46.49 3°36.97 74 14.7 68 13.4
2003-04-11 09:19:00 51°46.49 3°36.99 75.1 14.7 68 13.5
2003-04-11 09:19:06 51°46.5 3°37.03 74.4 14.7 68 13.6
2003-04-11 09:19:10 51°46.51 3°37.05 74 14.7 67 13.7
2003-04-11 09:19:16 51°46.52 3°37.09 74.1 14.7 68 13.5
2003-04-11 09:19:20 51°46.53 3°37.11 73.6 14.7 67 13.8
2003-04-11 09:19:26 51°46.54 3°37.15 74.7 14.7 67 13.9
2003-04-11 09:19:30 51°46.54 3°37.17 74 14.8 67 13.7
2003-04-11 09:19:36 51°46.55 3°37.21 73.5 14.8 67 13.6
2003-04-11 09:19:40 51°46.56 3°37.24 74.5 14.7 67 13.7
2003-04-11 09:19:46 51°46.57 3°37.27 74.2 14.8 68 13.8
2003-04-11 09:19:50 51°46.57 3°37.3 74.4 14.8 67 14.2
2003-04-11 09:19:56 51°46.58 3°37.33 74.3 14.9 67 14
2003-04-11 09:20:00 51°46.59 3°37.36 73.9 14.8 67 14.1
2003-04-11 09:20:06 51°46.6 3°37.39 74.2 14.8 67 14
2003-04-11 09:20:10 51°46.6 3°37.42 74.9 14.8 68 14.1
2003-04-11 09:20:16 51°46.61 3°37.46 74.1 14.9 67 14.1
2003-04-11 09:20:20 51°46.62 3°37.48 73.8 14.8 67 14.2
2003-04-11 09:20:26 51°46.63 3°37.52 74.9 14.8 68 14
2003-04-11 09:20:30 51°46.64 3°37.54 74.4 14.8 68 14.1
2003-04-11 09:20:36 51°46.65 3°37.58 74.7 14.8 67 14.2
2003-04-11 09:20:40 51°46.65 3°37.6 74.4 14.8 67 14.2
2003-04-11 09:20:46 51°46.66 3°37.64 73.3 14.7 66 14.2
2003-04-11 09:20:50 51°46.67 3°37.66 72.6 14.7 66 14.1
2003-04-11 09:20:56 51°46.68 3°37.7 73.4 14.8 66 14.2
2003-04-11 09:21:00 51°46.69 3°37.72 72.2 14.8 65 14.3
2003-04-11 09:21:06 51°46.7 3°37.76 72.9 14.8 66 14.5
2003-04-11 09:21:10 51°46.7 3°37.78 72.5 14.7 65 14.5
2003-04-11 09:21:16 51°46.71 3°37.82 72.9 14.7 66 14.6
2003-04-11 09:21:20 51°46.72 3°37.84 71.9 14.8 65 14.5
2003-04-11 09:21:26 51°46.73 3°37.88 71.7 14.8 65 14.7
2003-04-11 09:21:30 51°46.74 3°37.9 72 14.7 65 14.5
2003-04-11 09:21:36 51°46.75 3°37.94 72.2 14.8 66 14.4
2003-04-11 09:21:40 51°46.75 3°37.96 72.4 14.7 65 14.4
2003-04-11 09:21:46 51°46.76 3°38 72.2 14.7 66 14.2
2003-04-11 09:21:50 51°46.77 3°38.02 72.2 14.7 65 14.3
2003-04-11 09:21:56 51°46.78 3°38.06 71.2 14.6 65 14.4
2003-04-11 09:22:00 51°46.79 3°38.08 71.8 14.6 65 14.5
2003-04-11 09:22:06 51°46.8 3°38.12 72.2 14.7 65 14.6
2003-04-11 09:22:10 51°46.81 3°38.14 71.7 14.7 65 14.7
2003-04-11 09:22:16 51°46.82 3°38.18 71.6 14.7 65 14.6
2003-04-11 09:22:20 51°46.82 3°38.2 72.3 14.7 65 14.6
2003-04-11 09:22:26 51°46.83 3°38.24 71.7 14.7 65 14.6
2003-04-11 09:22:30 51°46.84 3°38.26 71.7 14.7 65 14.9
2003-04-11 09:22:36 51°46.85 3°38.3 72.3 14.7 66 14.7
2003-04-11 09:22:40 51°46.86 3°38.32 71.8 14.7 65 14.7
2003-04-11 09:22:46 51°46.87 3°38.36 71.6 14.7 66 14.7
2003-04-11 09:22:50 51°46.87 3°38.38 72.5 14.6 65 14.8
2003-04-11 09:22:56 51°46.88 3°38.42 71.8 14.7 66 14.7
2003-04-11 09:23:00 51°46.89 3°38.44 72.8 14.6 65 14.8
2003-04-11 09:23:06 51°46.9 3°38.48 71.5 14.6 66 15
2003-04-11 09:23:10 51°46.91 3°38.5 72.5 14.6 65 15
2003-04-11 09:23:16 51°46.92 3°38.53 71.8 14.7 66 14.8
2003-04-11 09:23:20 51°46.93 3°38.56 72.4 14.7 65 14.7
2003-04-11 09:23:26 51°46.93 3°38.59 71.7 14.6 65 14.9
2003-04-11 09:23:30 51°46.94 3°38.62 72.6 14.6 66 14.9
2003-04-11 09:23:36 51°46.95 3°38.65 71.8 14.7 65 14.7
2003-04-11 09:23:40 51°46.96 3°38.68 71.9 14.7 65 14.8
2003-04-11 09:23:46 51°46.97 3°38.71 72.3 14.7 65 14.7
2003-04-11 09:23:50 51°46.98 3°38.74 71.2 14.7 65 14.9
2003-04-11 09:23:56 51°46.99 3°38.77 73 14.6 66 14.9
2003-04-11 09:24:00 51°46.99 3°38.8 72.1 14.6 65 15
2003-04-11 09:24:06 51°47 3°38.83 71.9 14.8 65 14.8
2003-04-11 09:24:10 51°47.01 3°38.86 71.5 14.8 64 15
2003-04-11 09:24:16 51°47.02 3°38.89 71.8 14.7 65 14.9
2003-04-11 09:24:20 51°47.03 3°38.92 72.5 14.7 65 15
2003-04-11 09:24:26 51°47.04 3°38.95 71.8 14.8 66 14.9
2003-04-11 09:24:30 51°47.05 3°38.98 72.4 14.8 65 14.9
2003-04-11 09:24:36 51°47.06 3°39.01 72.4 14.7 66 14.9
2003-04-11 09:24:40 51°47.06 3°39.04 72.5 14.8 66 14.7
2003-04-11 09:24:46 51°47.07 3°39.07 71.8 14.8 65 14.7
2003-04-11 09:24:50 51°47.08 3°39.1 72.3 14.8 66 14.9
2003-04-11 09:24:56 51°47.09 3°39.13 73.2 14.7 66 14.9
2003-04-11 09:25:00 51°47.1 3°39.16 72.5 14.7 66 14.8
2003-04-11 09:25:06 51°47.11 3°39.19 73.1 14.7 66 14.4
2003-04-11 09:25:10 51°47.11 3°39.22 72.4 14.7 66 14.9
2003-04-11 09:25:16 51°47.12 3°39.25 73.4 14.6 66 14.9
2003-04-11 09:25:20 51°47.13 3°39.27 72 14.4 65 15
2003-04-11 09:25:26 51°47.14 3°39.3 69.1 13.7 62 14.9
2003-04-11 09:25:30 51°47.15 3°39.32 67.5 13 61 14.8
2003-04-11 09:25:36 51°47.16 3°39.35 65.7 12 59 14.9
2003-04-11 09:25:40 51°47.16 3°39.36 63.8 11.4 57 14.9
2003-04-11 09:25:46 51°47.17 3°39.38 61.5 10.5 54 15
2003-04-11 09:25:50 51°47.18 3°39.4 57.9 10 52 15
2003-04-11 09:25:56 51°47.19 3°39.41 54.7 9.4 49 14.9
2003-04-11 09:26:00 51°47.2 3°39.43 52.2 9.1 47 15
2003-04-11 09:26:06 51°47.21 3°39.44 50.7 8.6 45 15.1
2003-04-11 09:26:10 51°47.21 3°39.45 50.1 8.3 44 15.2
2003-04-11 09:26:16 51°47.22 3°39.46 49.2 7.8 44 15.1
2003-04-11 09:26:20 51°47.23 3°39.47 48 7.4 42 13.9
2003-04-11 09:26:26 51°47.24 3°39.48 46.4 7 41 14.5
2003-04-11 09:26:30 51°47.24 3°39.49 44.2 6.6 40 15
2003-04-11 09:26:36 51°47.25 3°39.5 41 6.1 37 15
2003-04-11 09:26:40 51°47.26 3°39.5 37.7 5.8 35 15
2003-04-11 09:26:46 51°47.26 3°39.51 34.6 5.3 32 14.9
2003-04-11 09:26:50 51°47.27 3°39.52 31.9 5 31 15.2
2003-04-11 09:26:56 51°47.27 3°39.52 29.7 4.5 29 15
2003-04-11 09:27:00 51°47.28 3°39.52 27.7 4.2 28 14.9
2003-04-11 09:27:06 51°47.28 3°39.53 26.2 3.8 27 15
2003-04-11 09:27:10 51°47.29 3°39.53 25 3.6 27 15
2003-04-11 09:27:16 51°47.29 3°39.53 23.9 3.3 27 14.8
2003-04-11 09:27:20 51°47.29 3°39.54 23 3.1 26 14.9
2003-04-11 09:27:26 51°47.3 3°39.54 23.2 2.8 28 15.1
2003-04-11 09:27:30 51°47.3 3°39.54 23.3 2.6 28 15.1
2003-04-11 09:27:36 51°47.3 3°39.55 23.5 2.4 29 15.2
2003-04-11 09:27:40 51°47.3 3°39.55 23.5 2.3 28 15.3
2003-04-11 09:27:46 51°47.31 3°39.55 23.4 2.3 28 15.2
2003-04-11 09:27:50 51°47.31 3°39.55 23.1 2.3 27 15.1
2003-04-11 09:27:56 51°47.31 3°39.55 23.1 2.3 28 15
2003-04-11 09:28:00 51°47.32 3°39.56 23.2 2.3 27 14.9
2003-04-11 09:28:06 51°47.32 3°39.56 22.6 2.3 27 14.5
2003-04-11 09:28:10 51°47.32 3°39.56 22.5 2.3 27 14.2
2003-04-11 09:28:16 51°47.33 3°39.56 22.3 2.3 26 14.3
2003-04-11 09:28:20 51°47.33 3°39.57 21.7 2.2 27 14.6
2003-04-11 09:28:26 51°47.33 3°39.57 21.7 2.2 26 15
2003-04-11 09:28:30 51°47.33 3°39.57 21.2 2.2 28 15.1
2003-04-11 09:28:36 51°47.34 3°39.57 21 2.2 27 15.3
2003-04-11 09:28:40 51°47.34 3°39.57 20.7 2.2 27 15.2
2003-04-11 09:28:46 51°47.34 3°39.58 20.4 2.2 27 15.3
2003-04-11 09:28:50 51°47.34 3°39.58 20.5 2.2 27 15.2
2003-04-11 09:28:56 51°47.35 3°39.58 20.3 2.1 27 15.2
2003-04-11 09:29:00 51°47.35 3°39.58 20.5 2.2 28 15.2
2003-04-11 09:29:06 51°47.35 3°39.59 20.4 2.1 27 15.4
2003-04-11 09:29:10 51°47.35 3°39.59 20.2 2.1 27 15.1
2003-04-11 09:29:16 51°47.36 3°39.59 20.3 2.1 27 15.3
2003-04-11 09:29:20 51°47.36 3°39.59 20.4 2.2 27 15.2
2003-04-11 09:29:26 51°47.36 3°39.6 20.6 2.1 27 15.4
2003-04-11 09:29:30 51°47.36 3°39.6 20.6 2.1 28 14.9
2003-04-11 09:29:36 51°47.37 3°39.6 20.6 2.1 28 15.1
2003-04-11 09:29:40 51°47.37 3°39.6 20.7 2.1 27 15.2
2003-04-11 09:29:46 51°47.37 3°39.6 20.8 2.1 27 15.1
2003-04-11 09:29:50 51°47.37 3°39.61 20.9 2.1 28 15.4
2003-04-11 09:29:56 51°47.38 3°39.61 20.8 2.1 27 15.3
2003-04-11 09:30:00 51°47.38 3°39.61 20.6 2.1 28 15.4
2003-04-11 09:30:06 51°47.38 3°39.61 20.6 2.1 27 15.2
2003-04-11 09:30:10 51°47.38 3°39.61 20.6 2.1 28 15.3
2003-04-11 09:30:16 51°47.39 3°39.62 20.8 2.1 28 15.3
2003-04-11 09:30:20 51°47.39 3°39.62 20.7 2.1 29 15.3
2003-04-11 09:30:26 51°47.39 3°39.62 20.8 2 28 15.3
2003-04-11 09:30:30 51°47.39 3°39.62 20.5 2 29 15.1
2003-04-11 09:30:36 51°47.4 3°39.63 20.8 2 29 15.2
2003-04-11 09:30:40 51°47.4 3°39.63 21.1 2 29 15.2
2003-04-11 09:30:46 51°47.4 3°39.63 21.3 2 29 15.4
2003-04-11 09:30:50 51°47.4 3°39.63 21.7 2 29 15.4
2003-04-11 09:30:56 51°47.41 3°39.63 21.7 2 30 15.2
2003-04-11 09:31:00 51°47.41 3°39.64 21.7 2 28 15.2
2003-04-11 09:31:06 51°47.41 3°39.64 21.9 2 29 15.3
2003-04-11 09:31:10 51°47.41 3°39.64 22 2 30 15.5
2003-04-11 09:31:16 51°47.42 3°39.64 22.1 2 29 15.3
2003-04-11 09:31:20 51°47.42 3°39.64 22 2 30 15.3
2003-04-11 09:31:26 51°47.42 3°39.65 22.2 1.9 30 15.3
2003-04-11 09:31:30 51°47.42 3°39.65 22.3 2 30 15.4
2003-04-11 09:31:36 51°47.42 3°39.65 22.4 1.9 29 15.4
2003-04-11 09:31:40 51°47.43 3°39.65 22.2 1.9 29 15.3
2003-04-11 09:31:46 51°47.43 3°39.66 22.3 1.9 30 15.4
2003-04-11 09:31:50 51°47.43 3°39.66 22.3 1.9 30 15.4
2003-04-11 09:31:56 51°47.43 3°39.66 22.3 1.8 30 15.4
2003-04-11 09:32:00 51°47.43 3°39.66 22.5 1.8 32 15.4
2003-04-11 09:32:06 51°47.44 3°39.66 22.6 1.8 30 15.2
2003-04-11 09:32:10 51°47.44 3°39.67 22.7 1.8 32 15.3
2003-04-11 09:32:16 51°47.44 3°39.67 22.7 1.8 31 15.3
2003-04-11 09:32:20 51°47.44 3°39.67 22.7 1.8 31 15.4
2003-04-11 09:32:26 51°47.45 3°39.67 22.7 1.7 30 15.3
2003-04-11 09:32:30 51°47.45 3°39.67 22.9 1.7 30 15.3
2003-04-11 09:32:36 51°47.45 3°39.68 22.8 1.7 30 15.3
2003-04-11 09:32:40 51°47.45 3°39.68 23.1 1.7 31 15.3
2003-04-11 09:32:46 51°47.45 3°39.68 23.2 1.7 29 15.3
2003-04-11 09:32:50 51°47.46 3°39.68 22.9 1.7 28 14.9
2003-04-11 09:32:56 51°47.46 3°39.68 22.9 1.7 31 14.8
2003-04-11 09:33:00 51°47.46 3°39.69 22.9 1.7 30 14.6
2003-04-11 09:33:06 51°47.46 3°39.69 23.1 1.7 32 14.3
2003-04-11 09:33:10 51°47.46 3°39.69 23 1.7 31 14.1
2003-04-11 09:33:16 51°47.47 3°39.69 23.2 1.7 31 14.2
2003-04-11 09:33:20 51°47.47 3°39.69 23.2 1.7 31 14.2
2003-04-11 09:33:26 51°47.47 3°39.7 23.3 1.7 32 14.5
2003-04-11 09:33:30 51°47.47 3°39.7 23.2 1.7 31 14.6
2003-04-11 09:33:36 51°47.47 3°39.7 23.4 1.7 31 14.9
2003-04-11 09:33:40 51°47.47 3°39.7 23.4 1.7 31 15
2003-04-11 09:33:46 51°47.48 3°39.7 23.4 1.7 31 15.3
2003-04-11 09:33:50 51°47.48 3°39.71 23.3 1.7 32 15.4
2003-04-11 09:33:56 51°47.48 3°39.71 23.6 1.6 32 15.6
2003-04-11 09:34:00 51°47.48 3°39.71 23.5 1.6 32 15.7
2003-04-11 09:34:06 51°47.48 3°39.71 23.6 1.6 31 15.5
2003-04-11 09:34:10 51°47.49 3°39.71 23.7 1.6 32 15.5
2003-04-11 09:34:16 51°47.49 3°39.72 23.8 1.6 31 15.5
2003-04-11 09:34:20 51°47.49 3°39.72 23.7 1.6 32 15.5
2003-04-11 09:34:26 51°47.49 3°39.72 23.7 1.6 33 15.3
2003-04-11 09:34:30 51°47.49 3°39.72 23.5 1.5 32 15.4
2003-04-11 09:34:36 51°47.5 3°39.72 23.8 1.5 32 15.4
2003-04-11 09:34:40 51°47.5 3°39.72 23.9 1.6 31 15.4
2003-04-11 09:34:46 51°47.5 3°39.73 23.9 1.6 32 15.5
2003-04-11 09:34:50 51°47.5 3°39.73 23.9 1.6 34 15.2
2003-04-11 09:34:56 51°47.5 3°39.73 23.9 1.6 34 15.3
2003-04-11 09:35:00 51°47.5 3°39.73 24.6 1.6 35 15.4
2003-04-11 09:35:06 51°47.51 3°39.74 24.6 1.6 34 15.4
2003-04-11 09:35:10 51°47.51 3°39.74 25.4 1.7 34 15.5
2003-04-11 09:35:16 51°47.51 3°39.74 27.1 2 33 15.5
2003-04-11 09:35:20 51°47.51 3°39.74 29.5 2.3 33 15.5
2003-04-11 09:35:26 51°47.52 3°39.75 32.6 2.6 34 15.4
2003-04-11 09:35:30 51°47.52 3°39.75 35.7 2.9 37 15.4
2003-04-11 09:35:36 51°47.52 3°39.76 40.2 3 39 15.4
2003-04-11 09:35:40 51°47.53 3°39.76 46.1 3.2 41 15.3
2003-04-11 09:35:46 51°47.53 3°39.77 53.4 3.4 45 -999
2003-04-11 09:35:50 51°47.53 3°39.77 58.6 3.6 49 -999
2003-04-11 09:35:56 51°47.54 3°39.78 62.7 3.8 52 15.5
2003-04-11 09:36:00 51°47.54 3°39.79 67 3.9 56 15.6
2003-04-11 09:36:06 51°47.54 3°39.8 71.4 4 60 15.5
2003-04-11 09:36:10 51°47.54 3°39.8 76.5 4.1 64 15.5
2003-04-11 09:36:16 51°47.55 3°39.81 82.1 4.1 69 15.6
2003-04-11 09:36:20 51°47.55 3°39.82 88.5 4.2 73 15.5
2003-04-11 09:36:26 51°47.55 3°39.83 93.1 4.2 78 15.4
2003-04-11 09:36:30 51°47.55 3°39.84 97.9 4.2 82 15.4
2003-04-11 09:36:36 51°47.55 3°39.85 103 4.2 87 15.6
2003-04-11 09:36:40 51°47.55 3°39.86 108.2 4.2 91 15.4
2003-04-11 09:36:46 51°47.55 3°39.87 112.6 4.2 96 15.3
2003-04-11 09:36:50 51°47.55 3°39.88 118.6 4.1 100 15.3
2003-04-11 09:36:56 51°47.54 3°39.89 123.2 4.1 106 15.2
2003-04-11 09:37:00 51°47.54 3°39.89 128.3 4.1 109 15.2
2003-04-11 09:37:06 51°47.54 3°39.9 134.6 4 115 15.3
2003-04-11 09:37:10 51°47.54 3°39.91 138.6 3.9 120 15.2
2003-04-11 09:37:16 51°47.53 3°39.92 143.2 3.8 125 15.3
2003-04-11 09:37:20 51°47.53 3°39.92 149.2 3.8 129 15.1
2003-04-11 09:37:26 51°47.52 3°39.93 154 3.7 135 15.3
2003-04-11 09:37:30 51°47.52 3°39.93 158.9 3.6 140 15.2
2003-04-11 09:37:36 51°47.52 3°39.94 164.7 3.6 145 15.2
2003-04-11 09:37:40 51°47.51 3°39.94 169 3.5 150 15.2
2003-04-11 09:37:46 51°47.51 3°39.94 174 3.4 156 15.2
2003-04-11 09:37:50 51°47.5 3°39.94 179.4 3.3 164 15.1
2003-04-11 09:37:56 51°47.5 3°39.94 184.8 3.2 169 15.2
2003-04-11 09:38:00 51°47.49 3°39.94 189.2 3.2 173 15.2
2003-04-11 09:38:06 51°47.49 3°39.94 192.3 3.3 177 15.2
2003-04-11 09:38:10 51°47.48 3°39.94 193 3.4 179 15.1
2003-04-11 09:38:16 51°47.48 3°39.94 194.7 3.4 181 15
2003-04-11 09:38:20 51°47.48 3°39.94 195 3.4 181 15.2
2003-04-11 09:38:26 51°47.47 3°39.94 193.4 3.4 178 15.2
2003-04-11 09:38:30 51°47.47 3°39.95 188.2 3.5 174 15.1
2003-04-11 09:38:36 51°47.46 3°39.95 184.1 3.6 171 15.1
2003-04-11 09:38:40 51°47.46 3°39.95 181.9 3.6 170 15.1
2003-04-11 09:38:46 51°47.45 3°39.95 184.1 3.6 173 15.1
2003-04-11 09:38:50 51°47.45 3°39.95 188.5 3.6 176 15
2003-04-11 09:38:56 51°47.44 3°39.95 194.5 3.5 185 15
2003-04-11 09:39:00 51°47.44 3°39.95 198.9 3.5 187 15
2003-04-11 09:39:06 51°47.43 3°39.94 202.4 3.5 193 14.8
2003-04-11 09:39:10 51°47.43 3°39.94 203.5 3.6 193 14.9
2003-04-11 09:39:16 51°47.42 3°39.94 204 3.6 194 14.9
2003-04-11 09:39:20 51°47.42 3°39.94 202.5 3.7 193 14.9
2003-04-11 09:39:26 51°47.41 3°39.94 201.5 3.7 192 14.8
2003-04-11 09:39:30 51°47.41 3°39.93 198.7 3.7 190 14.8
2003-04-11 09:39:36 51°47.4 3°39.93 198.4 3.7 188 14.7
2003-04-11 09:39:40 51°47.4 3°39.93 196.9 3.7 188 14.8
2003-04-11 09:39:46 51°47.39 3°39.93 196.6 3.6 186 14.6
2003-04-11 09:39:50 51°47.39 3°39.93 195.9 3.6 187 14.8
2003-04-11 09:39:56 51°47.38 3°39.93 196 3.5 186 14.6
2003-04-11 09:40:00 51°47.38 3°39.93 196.7 3.4 189 14.9
2003-04-11 09:40:06 51°47.37 3°39.93 198.4 3.4 189 14.7
2003-04-11 09:40:10 51°47.37 3°39.92 200.5 3.3 193 14.8
2003-04-11 09:40:16 51°47.36 3°39.92 203.3 3.2 196 14.8
2003-04-11 09:40:20 51°47.36 3°39.92 206 3.2 200 14.6
2003-04-11 09:40:26 51°47.36 3°39.92 209.5 3.1 204 14.8
2003-04-11 09:40:30 51°47.35 3°39.91 212.1 3.1 207 14.7
2003-04-11 09:40:36 51°47.35 3°39.91 215.5 3 212 14.7
2003-04-11 09:40:40 51°47.35 3°39.91 218.2 3 214 14.7
2003-04-11 09:40:46 51°47.34 3°39.9 221.8 3 220 14.8
2003-04-11 09:40:50 51°47.34 3°39.9 224.4 2.9 222 14.6
2003-04-11 09:40:56 51°47.34 3°39.89 227.8 2.9 229 14.7
2003-04-11 09:41:00 51°47.34 3°39.89 230 2.9 229 14.7
2003-04-11 09:41:06 51°47.33 3°39.88 233 2.9 235 14.7
2003-04-11 09:41:10 51°47.33 3°39.87 234.4 2.9 237 14.7
2003-04-11 09:41:16 51°47.33 3°39.87 236.3 2.9 238 14.7
2003-04-11 09:41:20 51°47.33 3°39.86 237.7 2.9 241 14.7
2003-04-11 09:41:26 51°47.33 3°39.86 237.4 2.9 242 14.7
2003-04-11 09:41:30 51°47.32 3°39.85 238 2.9 242 14.8
2003-04-11 09:41:36 51°47.32 3°39.85 238 2.9 242 14.7
2003-04-11 09:41:40 51°47.32 3°39.84 237.2 2.9 242 14.7
2003-04-11 09:41:46 51°47.32 3°39.83 236.4 2.9 241 14.9
2003-04-11 09:41:50 51°47.32 3°39.83 235.7 2.9 241 14.9
2003-04-11 09:41:56 51°47.31 3°39.82 234.4 2.9 240 14.8
2003-04-11 09:42:00 51°47.31 3°39.82 233.4 2.8 238 14.8
2003-04-11 09:42:06 51°47.31 3°39.81 231.9 2.8 237 14.9
2003-04-11 09:42:10 51°47.31 3°39.81 230.9 2.8 235 14.6
2003-04-11 09:42:16 51°47.31 3°39.8 229 2.8 233 14.8
2003-04-11 09:42:20 51°47.3 3°39.8 227.6 2.7 230 14.7
2003-04-11 09:42:26 51°47.3 3°39.79 225.1 2.7 230 14.7
2003-04-11 09:42:30 51°47.3 3°39.79 223.5 2.7 224 14.7
2003-04-11 09:42:36 51°47.29 3°39.79 222.5 2.7 225 14.8
2003-04-11 09:42:40 51°47.29 3°39.78 220.9 2.7 221 14.9
2003-04-11 09:42:46 51°47.29 3°39.78 220.8 2.7 222 14.9
2003-04-11 09:42:50 51°47.29 3°39.77 220.9 2.7 224 14.9
2003-04-11 09:42:56 51°47.28 3°39.77 221.4 2.7 221 14.9
2003-04-11 09:43:00 51°47.28 3°39.77 222 2.7 222 14.7
2003-04-11 09:43:06 51°47.28 3°39.76 222.1 2.7 222 14.7
2003-04-11 09:43:10 51°47.28 3°39.76 222.7 2.6 224 14.8
2003-04-11 09:43:16 51°47.27 3°39.75 223.3 2.6 222 14.4
2003-04-11 09:43:20 51°47.27 3°39.75 222.8 2.6 225 14.2
2003-04-11 09:43:26 51°47.27 3°39.75 222.5 2.5 223 14
2003-04-11 09:43:30 51°47.27 3°39.74 222.6 2.5 225 14.1
2003-04-11 09:43:36 51°47.26 3°39.74 222.3 2.4 223 14.4
2003-04-11 09:43:40 51°47.26 3°39.74 222 2.4 225 14.5
2003-04-11 09:43:46 51°47.26 3°39.73 222 2.3 223 14.6
2003-04-11 09:43:50 51°47.26 3°39.73 221.9 2.3 224 14.6
2003-04-11 09:43:56 51°47.25 3°39.73 221.4 2.2 224 14.8
2003-04-11 09:44:00 51°47.25 3°39.72 221.2 2.2 221 14.7
2003-04-11 09:44:06 51°47.25 3°39.72 220.6 2.2 222 14.7
2003-04-11 09:44:10 51°47.25 3°39.72 219.7 2.1 220 14.6
2003-04-11 09:44:16 51°47.25 3°39.71 219.5 2.1 219 14.8
2003-04-11 09:44:20 51°47.24 3°39.71 218.5 2.1 220 14.8
2003-04-11 09:44:26 51°47.24 3°39.71 218.2 2.1 217 14.6
2003-04-11 09:44:30 51°47.24 3°39.71 217.3 2.1 218 14.8
2003-04-11 09:44:36 51°47.24 3°39.7 216.2 2 214 14.7
2003-04-11 09:44:40 51°47.23 3°39.7 215.5 2 216 14.7
2003-04-11 09:44:46 51°47.23 3°39.7 214.3 2 213 14.6
2003-04-11 09:44:50 51°47.23 3°39.7 213.8 2 213 14.7
2003-04-11 09:44:56 51°47.23 3°39.69 212.7 2 211 14.6
2003-04-11 09:45:00 51°47.22 3°39.69 211.8 2 210 14.7
2003-04-11 09:45:06 51°47.22 3°39.69 211.4 1.9 208 14.8
2003-04-11 09:45:10 51°47.22 3°39.69 210.4 1.9 207 14.6
2003-04-11 09:45:16 51°47.22 3°39.69 210.2 1.9 206 14.8
2003-04-11 09:45:20 51°47.22 3°39.68 209.4 1.9 205 14.9
2003-04-11 09:45:26 51°47.21 3°39.68 209.3 1.9 203 14.8
2003-04-11 09:45:30 51°47.21 3°39.68 208.6 1.9 205 14.7
2003-04-11 09:45:36 51°47.21 3°39.68 208.4 1.9 202 14.8
2003-04-11 09:45:40 51°47.21 3°39.68 208.2 1.9 204 14.8
2003-04-11 09:45:46 51°47.2 3°39.68 207.6 1.9 202 14.9
2003-04-11 09:45:50 51°47.2 3°39.67 207.8 1.9 203 14.9
2003-04-11 09:45:56 51°47.2 3°39.67 208.1 1.9 202 15
2003-04-11 09:46:00 51°47.2 3°39.67 208 1.9 203 14.8
2003-04-11 09:46:06 51°47.19 3°39.67 208.4 1.9 201 15
2003-04-11 09:46:10 51°47.19 3°39.67 208.5 1.9 205 14.9
2003-04-11 09:46:16 51°47.19 3°39.67 209.1 1.9 203 15
2003-04-11 09:46:20 51°47.19 3°39.66 210.1 1.9 206 14.9
2003-04-11 09:46:26 51°47.18 3°39.66 210.4 1.9 206 15
2003-04-11 09:46:30 51°47.18 3°39.66 211 1.9 207 14.8
2003-04-11 09:46:36 51°47.18 3°39.66 211.8 1.9 209 15
2003-04-11 09:46:40 51°47.18 3°39.66 212.7 1.9 208 14.8
2003-04-11 09:46:46 51°47.17 3°39.65 214 1.9 211 14.9
2003-04-11 09:46:50 51°47.17 3°39.65 214.4 1.9 211 15.1